createdAt,value
2018-07-01T00:00:20.027Z,76.23
2018-07-01T00:02:15.315Z,77.59
2018-07-01T00:03:15.265Z,76.72
2018-07-01T00:05:10.552Z,77.20
2018-07-01T00:06:10.439Z,77.69
2018-07-01T00:08:06.598Z,77.98
2018-07-01T00:09:06.471Z,78.33
2018-07-01T00:11:03.294Z,77.69
2018-07-01T00:12:03.209Z,78.94
2018-07-01T00:13:58.518Z,78.75
2018-07-01T00:14:58.404Z,78.75
2018-07-01T00:16:53.681Z,78.75
2018-07-01T00:17:53.609Z,78.85
2018-07-01T00:19:48.922Z,79.33
2018-07-01T00:20:48.814Z,79.43
2018-07-01T00:22:44.100Z,79.91
2018-07-01T00:23:44.026Z,79.24
2018-07-01T00:25:39.335Z,79.24
2018-07-01T00:26:39.233Z,79.24
2018-07-01T00:28:34.508Z,79.82
2018-07-01T00:29:34.423Z,79.14
2018-07-01T00:31:30.549Z,79.72
2018-07-01T00:32:30.450Z,79.88
2018-07-01T00:34:25.770Z,80.36
2018-07-01T00:35:25.660Z,80.36
2018-07-01T00:37:21.027Z,80.55
2018-07-01T00:38:20.866Z,80.65
2018-07-01T00:40:16.149Z,80.26
2018-07-01T00:41:16.068Z,80.75
2018-07-01T00:43:13.751Z,80.85
2018-07-01T00:44:13.635Z,80.46
2018-07-01T00:46:09.020Z,80.50
2018-07-01T00:47:08.835Z,80.46
2018-07-01T00:49:04.163Z,80.55
2018-07-01T00:50:04.055Z,80.36
2018-07-01T00:51:59.346Z,80.85
2018-07-01T00:52:59.253Z,80.85
2018-07-01T00:54:54.561Z,81.04
2018-07-01T00:55:54.462Z,80.75
2018-07-01T00:57:49.780Z,81.04
2018-07-01T00:58:49.676Z,80.36
2018-07-01T01:00:44.945Z,80.75
2018-07-01T01:01:44.874Z,80.46
2018-07-01T01:03:40.191Z,80.94
2018-07-01T01:04:40.073Z,80.94
2018-07-01T01:06:35.382Z,81.13
2018-07-01T01:07:35.350Z,81.33
2018-07-01T01:09:30.621Z,81.23
2018-07-01T01:10:30.512Z,81.43
2018-07-01T01:12:25.807Z,81.13
2018-07-01T01:13:25.726Z,81.13
2018-07-01T01:15:21.033Z,81.52
2018-07-01T01:16:20.931Z,81.43
2018-07-01T01:18:16.210Z,81.62
2018-07-01T01:19:16.110Z,81.72
2018-07-01T01:21:11.453Z,81.33
2018-07-01T01:22:11.331Z,82.30
2018-07-01T01:24:06.613Z,82.07
2018-07-01T01:25:06.551Z,82.84
2018-07-01T01:27:01.895Z,82.26
2018-07-01T01:28:01.774Z,82.17
2018-07-01T01:29:57.080Z,81.97
2018-07-01T01:30:56.962Z,81.87
2018-07-01T01:32:52.274Z,82.17
2018-07-01T01:33:52.170Z,81.72
2018-07-01T01:35:47.477Z,81.43
2018-07-01T01:36:47.372Z,81.72
2018-07-01T01:38:42.649Z,81.39
2018-07-01T01:39:42.570Z,81.29
2018-07-01T01:41:37.882Z,81.39
2018-07-01T01:42:37.806Z,81.39
2018-07-01T01:44:33.054Z,81.58
2018-07-01T01:45:32.980Z,81.48
2018-07-01T01:47:28.296Z,81.39
2018-07-01T01:48:28.203Z,82.07
2018-07-01T01:50:23.493Z,81.77
2018-07-01T01:51:23.378Z,81.58
2018-07-01T01:53:18.671Z,81.39
2018-07-01T01:54:18.584Z,81.39
2018-07-01T01:56:14.512Z,81.48
2018-07-01T01:57:13.808Z,81.77
2018-07-01T01:59:09.149Z,81.48
2018-07-01T02:00:09.042Z,81.20
2018-07-01T02:02:04.294Z,81.29
2018-07-01T02:03:04.213Z,81.68
2018-07-01T02:04:59.610Z,81.77
2018-07-01T02:05:59.424Z,81.64
2018-07-01T02:07:55.557Z,81.68
2018-07-01T02:08:55.484Z,81.73
2018-07-01T02:10:51.593Z,81.87
2018-07-01T02:11:51.481Z,81.54
2018-07-01T02:13:46.828Z,81.54
2018-07-01T02:14:46.704Z,82.03
2018-07-01T02:16:41.988Z,81.73
2018-07-01T02:17:41.911Z,81.73
2018-07-01T02:19:37.236Z,81.73
2018-07-01T02:20:37.118Z,81.64
2018-07-01T02:22:32.437Z,81.35
2018-07-01T02:23:32.336Z,81.05
2018-07-01T02:25:27.637Z,81.73
2018-07-01T02:26:27.548Z,80.96
2018-07-01T02:28:22.850Z,81.05
2018-07-01T02:29:22.739Z,81.05
2018-07-01T02:31:18.057Z,81.45
2018-07-01T02:32:17.952Z,81.45
2018-07-01T02:34:13.260Z,80.77
2018-07-01T02:35:13.178Z,80.77
2018-07-01T02:37:08.475Z,80.87
2018-07-01T02:38:08.395Z,80.77
2018-07-01T02:40:03.698Z,81.05
2018-07-01T02:41:03.586Z,81.35
2018-07-01T02:42:58.884Z,80.57
2018-07-01T02:43:58.791Z,80.47
2018-07-01T02:45:54.126Z,80.67
2018-07-01T02:46:53.987Z,80.57
2018-07-01T02:48:49.285Z,80.77
2018-07-01T02:49:49.207Z,80.57
2018-07-01T02:51:44.531Z,80.38
2018-07-01T02:52:44.428Z,80.09
2018-07-01T02:54:39.697Z,80.09
2018-07-01T02:55:39.629Z,79.99
2018-07-01T02:57:34.947Z,79.99
2018-07-01T02:58:34.843Z,80.19
2018-07-01T03:00:30.117Z,80.38
2018-07-01T03:01:30.020Z,79.99
2018-07-01T03:03:25.347Z,80.38
2018-07-01T03:04:25.229Z,79.80
2018-07-01T03:06:22.015Z,79.70
2018-07-01T03:07:21.938Z,79.80
2018-07-01T03:09:18.092Z,79.60
2018-07-01T03:10:17.985Z,79.60
2018-07-01T03:12:13.304Z,79.41
2018-07-01T03:13:13.192Z,79.80
2018-07-01T03:15:08.473Z,79.60
2018-07-01T03:16:08.411Z,80.09
2018-07-01T03:18:03.715Z,79.60
2018-07-01T03:19:03.604Z,79.32
2018-07-01T03:20:59.784Z,79.60
2018-07-01T03:21:59.668Z,79.50
2018-07-01T03:23:54.964Z,79.41
2018-07-01T03:24:54.890Z,79.70
2018-07-01T03:26:50.201Z,79.50
2018-07-01T03:27:50.079Z,79.27
2018-07-01T03:29:45.372Z,79.32
2018-07-01T03:30:45.301Z,79.60
2018-07-01T03:32:41.464Z,79.57
2018-07-01T03:33:41.343Z,79.57
2018-07-01T03:35:36.629Z,79.47
2018-07-01T03:36:36.552Z,79.37
2018-07-01T03:38:31.869Z,79.66
2018-07-01T03:39:31.820Z,79.27
2018-07-01T03:41:27.083Z,79.32
2018-07-01T03:42:26.983Z,79.90
2018-07-01T03:44:22.334Z,79.70
2018-07-01T03:45:22.229Z,79.60
2018-07-01T03:47:17.521Z,79.70
2018-07-01T03:48:17.450Z,79.70
2018-07-01T03:50:12.761Z,79.70
2018-07-01T03:51:12.653Z,79.80
2018-07-01T03:53:08.769Z,79.90
2018-07-01T03:54:08.695Z,79.50
2018-07-01T03:56:04.006Z,79.80
2018-07-01T03:57:03.905Z,79.90
2018-07-01T03:58:59.227Z,79.80
2018-07-01T03:59:59.113Z,79.80
2018-07-01T04:01:54.416Z,79.32
2018-07-01T04:02:54.308Z,79.70
2018-07-01T04:04:49.588Z,78.92
2018-07-01T04:05:49.512Z,79.12
2018-07-01T04:07:44.839Z,79.32
2018-07-01T04:08:44.744Z,79.41
2018-07-01T04:10:40.044Z,79.41
2018-07-01T04:11:39.929Z,79.32
2018-07-01T04:13:35.224Z,79.32
2018-07-01T04:14:35.152Z,79.41
2018-07-01T04:16:30.453Z,79.60
2018-07-01T04:17:30.352Z,79.22
2018-07-01T04:19:25.675Z,78.54
2018-07-01T04:20:25.550Z,79.02
2018-07-01T04:22:20.918Z,79.02
2018-07-01T04:23:20.763Z,79.22
2018-07-01T04:25:16.056Z,79.50
2018-07-01T04:26:15.982Z,79.50
2018-07-01T04:28:11.389Z,78.59
2018-07-01T04:29:11.191Z,78.89
2018-07-01T04:31:06.655Z,78.50
2018-07-01T04:32:06.450Z,78.31
2018-07-01T04:34:01.729Z,78.79
2018-07-01T04:35:01.626Z,78.02
2018-07-01T04:36:56.927Z,78.31
2018-07-01T04:37:56.856Z,77.92
2018-07-01T04:39:52.176Z,77.73
2018-07-01T04:40:52.068Z,77.53
2018-07-01T04:42:48.240Z,77.73
2018-07-01T04:43:48.129Z,77.92
2018-07-01T04:45:44.217Z,76.86
2018-07-01T04:46:44.153Z,76.66
2018-07-01T04:48:40.284Z,76.95
2018-07-01T04:49:40.179Z,76.56
2018-07-01T04:51:35.488Z,76.28
2018-07-01T04:52:35.410Z,76.37
2018-07-01T04:54:30.714Z,75.70
2018-07-01T04:55:30.605Z,75.60
2018-07-01T04:57:27.450Z,75.21
2018-07-01T04:58:27.333Z,75.50
2018-07-01T05:00:22.652Z,75.50
2018-07-01T05:01:22.550Z,75.31
2018-07-01T05:03:17.833Z,75.21
2018-07-01T05:04:17.752Z,75.70
2018-07-01T05:06:13.890Z,74.82
2018-07-01T05:07:13.787Z,74.53
2018-07-01T05:09:09.888Z,74.49
2018-07-01T05:10:09.808Z,73.63
2018-07-01T05:12:05.122Z,73.43
2018-07-01T05:13:05.009Z,72.95
2018-07-01T05:15:00.328Z,71.50
2018-07-01T05:16:00.220Z,70.88
2018-07-01T05:17:55.507Z,71.30
2018-07-01T05:18:55.426Z,71.11
2018-07-01T05:20:50.737Z,71.88
2018-07-01T05:21:50.617Z,71.78
2018-07-01T05:23:45.906Z,72.17
2018-07-01T05:24:45.836Z,71.98
2018-07-01T05:26:41.154Z,72.46
2018-07-01T05:27:41.093Z,72.56
2018-07-01T05:29:36.352Z,72.40
2018-07-01T05:30:36.252Z,72.89
2018-07-01T05:32:31.553Z,73.37
2018-07-01T05:33:31.447Z,73.75
2018-07-01T05:35:27.563Z,73.47
2018-07-01T05:36:27.487Z,74.18
2018-07-01T05:38:22.811Z,74.28
2018-07-01T05:39:22.709Z,74.18
2018-07-01T05:41:17.987Z,74.38
2018-07-01T05:42:17.912Z,75.15
2018-07-01T05:44:13.211Z,75.24
2018-07-01T05:45:13.098Z,75.24
2018-07-01T05:47:09.947Z,75.24
2018-07-01T05:48:09.811Z,75.24
2018-07-01T05:50:05.097Z,74.43
2018-07-01T05:51:05.023Z,74.53
2018-07-01T05:53:00.343Z,74.15
2018-07-01T05:54:00.208Z,74.24
2018-07-01T05:55:55.488Z,74.43
2018-07-01T05:56:55.403Z,75.15
2018-07-01T05:58:50.734Z,74.86
2018-07-01T05:59:50.639Z,74.96
2018-07-01T06:01:45.960Z,75.05
2018-07-01T06:02:45.846Z,74.76
2018-07-01T06:04:41.111Z,74.70
2018-07-01T06:05:41.032Z,75.09
2018-07-01T06:07:36.335Z,74.90
2018-07-01T06:08:36.257Z,75.57
2018-07-01T06:10:31.627Z,75.63
2018-07-01T06:11:31.509Z,75.54
2018-07-01T06:13:27.606Z,75.54
2018-07-01T06:14:27.515Z,75.24
2018-07-01T06:16:22.884Z,75.28
2018-07-01T06:17:22.724Z,75.28
2018-07-01T06:19:17.992Z,74.90
2018-07-01T06:20:17.929Z,75.09
2018-07-01T06:22:13.264Z,75.09
2018-07-01T06:23:13.109Z,75.28
2018-07-01T06:25:08.401Z,75.03
2018-07-01T06:26:08.321Z,74.35
2018-07-01T06:28:04.435Z,74.93
2018-07-01T06:29:04.324Z,74.16
2018-07-01T06:30:59.659Z,73.90
2018-07-01T06:31:59.541Z,74.00
2018-07-01T06:33:54.817Z,74.29
2018-07-01T06:34:54.744Z,74.10
2018-07-01T06:36:50.873Z,75.03
2018-07-01T06:37:50.769Z,74.74
2018-07-01T06:39:46.097Z,74.39
2018-07-01T06:40:45.999Z,73.32
2018-07-01T06:42:41.269Z,73.22
2018-07-01T06:43:41.249Z,72.58
2018-07-01T06:45:37.333Z,73.22
2018-07-01T06:46:37.229Z,73.52
2018-07-01T06:48:32.532Z,72.83
2018-07-01T06:49:32.538Z,73.42
2018-07-01T06:51:27.751Z,74.00
2018-07-01T06:52:27.651Z,72.74
2018-07-01T06:54:22.958Z,72.06
2018-07-01T06:55:22.878Z,71.77
2018-07-01T06:57:18.184Z,71.42
2018-07-01T06:58:18.074Z,70.15
2018-07-01T07:00:13.363Z,69.76
2018-07-01T07:01:13.287Z,69.38
2018-07-01T07:03:08.614Z,69.38
2018-07-01T07:04:08.496Z,70.06
2018-07-01T07:06:03.796Z,68.70
2018-07-01T07:07:03.714Z,68.99
2018-07-01T07:08:59.038Z,68.05
2018-07-01T07:09:58.937Z,68.60
2018-07-01T07:11:54.257Z,67.73
2018-07-01T07:12:54.167Z,67.28
2018-07-01T07:14:49.472Z,66.79
2018-07-01T07:15:49.374Z,67.08
2018-07-01T07:17:45.571Z,67.18
2018-07-01T07:18:45.459Z,68.02
2018-07-01T07:20:40.786Z,68.15
2018-07-01T07:21:40.680Z,66.89
2018-07-01T07:23:36.801Z,66.02
2018-07-01T07:24:36.751Z,66.02
2018-07-01T07:26:32.035Z,66.30
2018-07-01T07:27:31.934Z,65.24
2018-07-01T07:29:27.200Z,64.78
2018-07-01T07:30:27.131Z,65.56
2018-07-01T07:32:22.471Z,64.88
2018-07-01T07:33:22.363Z,64.53
2018-07-01T07:35:17.716Z,63.62
2018-07-01T07:36:17.594Z,64.14
2018-07-01T07:38:12.925Z,64.33
2018-07-01T07:39:12.816Z,63.07
2018-07-01T07:41:08.108Z,62.77
2018-07-01T07:42:08.032Z,63.17
2018-07-01T07:44:03.341Z,62.48
2018-07-01T07:45:03.271Z,61.64
2018-07-01T07:46:58.552Z,60.57
2018-07-01T07:47:58.433Z,60.57
2018-07-01T07:49:52.775Z,60.47
2018-07-01T07:50:52.672Z,61.35
2018-07-01T07:52:48.003Z,61.64
2018-07-01T07:53:47.926Z,61.44
2018-07-01T07:55:43.239Z,61.64
2018-07-01T07:56:43.140Z,61.61
2018-07-01T07:58:38.572Z,61.44
2018-07-01T07:59:38.370Z,60.86
2018-07-01T08:01:33.705Z,60.57
2018-07-01T08:02:33.620Z,60.47
2018-07-01T08:04:28.945Z,60.67
2018-07-01T08:05:28.843Z,60.86
2018-07-01T08:07:24.191Z,60.60
2018-07-01T08:08:24.079Z,60.11
2018-07-01T08:10:19.386Z,59.41
2018-07-01T08:11:19.278Z,59.43
2018-07-01T08:13:14.542Z,59.63
2018-07-01T08:14:14.479Z,59.43
2018-07-01T08:16:09.894Z,58.85
2018-07-01T08:17:09.697Z,57.87
2018-07-01T08:19:05.010Z,57.81
2018-07-01T08:20:04.881Z,58.00
2018-07-01T08:22:00.273Z,57.22
2018-07-01T08:23:00.124Z,57.39
2018-07-01T08:24:56.931Z,58.07
2018-07-01T08:25:56.850Z,57.59
2018-07-01T08:27:52.175Z,58.46
2018-07-01T08:28:52.084Z,58.17
2018-07-01T08:30:47.397Z,57.87
2018-07-01T08:31:47.295Z,57.39
2018-07-01T08:33:42.619Z,57.42
2018-07-01T08:34:42.515Z,57.81
2018-07-01T08:36:37.816Z,58.39
2018-07-01T08:37:37.748Z,58.20
2018-07-01T08:39:33.044Z,58.49
2018-07-01T08:40:32.927Z,58.39
2018-07-01T08:42:28.212Z,57.90
2018-07-01T08:43:28.142Z,57.74
2018-07-01T08:45:23.458Z,57.84
2018-07-01T08:46:23.423Z,58.32
2018-07-01T08:48:19.460Z,58.69
2018-07-01T08:49:19.387Z,58.39
2018-07-01T08:51:14.712Z,58.69
2018-07-01T08:52:14.597Z,58.10
2018-07-01T08:54:09.877Z,58.51
2018-07-01T08:55:09.782Z,58.51
2018-07-01T08:57:05.215Z,58.45
2018-07-01T08:58:04.998Z,58.61
2018-07-01T09:00:00.322Z,57.76
2018-07-01T09:01:00.240Z,57.96
2018-07-01T09:02:56.373Z,57.57
2018-07-01T09:03:56.262Z,57.28
2018-07-01T09:05:52.378Z,57.57
2018-07-01T09:06:52.290Z,57.28
2018-07-01T09:08:47.675Z,57.67
2018-07-01T09:09:47.507Z,57.76
2018-07-01T09:11:42.845Z,57.64
2018-07-01T09:12:42.706Z,57.86
2018-07-01T09:14:38.050Z,57.15
2018-07-01T09:15:37.923Z,56.89
2018-07-01T09:17:33.262Z,57.28
2018-07-01T09:18:33.148Z,57.37
2018-07-01T09:20:28.515Z,57.37
2018-07-01T09:21:28.430Z,56.82
2018-07-01T09:23:24.620Z,56.33
2018-07-01T09:24:24.505Z,56.33
2018-07-01T09:26:19.823Z,56.33
2018-07-01T09:27:19.723Z,56.43
2018-07-01T09:29:14.999Z,57.11
2018-07-01T09:30:14.946Z,57.11
2018-07-01T09:32:10.276Z,56.82
2018-07-01T09:33:10.157Z,57.01
2018-07-01T09:35:05.469Z,57.21
2018-07-01T09:36:05.386Z,57.11
2018-07-01T09:38:01.479Z,56.82
2018-07-01T09:39:01.409Z,56.82
2018-07-01T09:40:57.546Z,56.33
2018-07-01T09:41:57.437Z,56.52
2018-07-01T09:43:52.730Z,56.92
2018-07-01T09:44:52.650Z,56.82
2018-07-01T09:46:47.971Z,56.43
2018-07-01T09:47:47.868Z,56.14
2018-07-01T09:49:43.183Z,55.94
2018-07-01T09:50:43.092Z,55.85
2018-07-01T09:52:38.404Z,56.16
2018-07-01T09:53:38.302Z,56.26
2018-07-01T09:55:33.630Z,55.68
2018-07-01T09:56:33.520Z,56.26
2018-07-01T09:58:28.860Z,55.29
2018-07-01T09:59:28.743Z,55.85
2018-07-01T10:01:24.080Z,55.87
2018-07-01T10:02:23.979Z,55.09
2018-07-01T10:04:20.111Z,55.19
2018-07-01T10:05:19.979Z,55.29
2018-07-01T10:07:15.269Z,55.48
2018-07-01T10:08:15.186Z,55.19
2018-07-01T10:10:10.498Z,55.77
2018-07-01T10:11:10.391Z,55.68
2018-07-01T10:13:05.683Z,56.04
2018-07-01T10:14:05.595Z,56.14
2018-07-01T10:16:00.981Z,55.94
2018-07-01T10:17:00.784Z,56.46
2018-07-01T10:18:56.196Z,55.77
2018-07-01T10:19:55.994Z,55.77
2018-07-01T10:21:51.325Z,55.22
2018-07-01T10:22:51.210Z,54.93
2018-07-01T10:24:46.551Z,55.68
2018-07-01T10:25:46.437Z,55.41
2018-07-01T10:27:42.644Z,55.22
2018-07-01T10:28:42.536Z,55.71
2018-07-01T10:30:38.644Z,55.22
2018-07-01T10:31:38.561Z,55.12
2018-07-01T10:33:33.883Z,54.73
2018-07-01T10:34:33.782Z,55.34
2018-07-01T10:36:30.222Z,56.32
2018-07-01T10:37:29.829Z,55.73
2018-07-01T10:39:25.122Z,55.54
2018-07-01T10:40:25.024Z,55.34
2018-07-01T10:42:20.334Z,53.97
2018-07-01T10:43:20.253Z,53.88
2018-07-01T10:45:15.582Z,54.36
2018-07-01T10:46:15.461Z,53.97
2018-07-01T10:48:10.756Z,54.44
2018-07-01T10:49:10.695Z,55.02
2018-07-01T10:51:06.025Z,55.05
2018-07-01T10:52:05.912Z,54.46
2018-07-01T10:54:01.278Z,54.27
2018-07-01T10:55:01.166Z,53.97
2018-07-01T10:56:56.498Z,53.88
2018-07-01T10:57:56.376Z,53.97
2018-07-01T10:59:51.701Z,54.27
2018-07-01T11:00:51.589Z,54.36
2018-07-01T11:02:46.908Z,54.36
2018-07-01T11:03:46.833Z,54.07
2018-07-01T11:04:46.773Z,53.91
2018-07-01T11:05:46.710Z,54.10
2018-07-01T11:06:46.664Z,54.20
2018-07-01T11:07:46.596Z,54.20
2018-07-01T11:08:46.543Z,53.91
2018-07-01T11:09:46.489Z,53.91
2018-07-01T11:10:46.416Z,54.20
2018-07-01T11:11:46.437Z,54.00
2018-07-01T11:12:46.317Z,53.91
2018-07-01T11:13:46.271Z,54.10
2018-07-01T11:14:46.199Z,53.71
2018-07-01T11:15:46.150Z,53.71
2018-07-01T11:16:46.089Z,54.00
2018-07-01T11:17:46.018Z,53.71
2018-07-01T11:18:45.987Z,53.71
2018-07-01T11:19:45.914Z,53.71
2018-07-01T11:20:45.869Z,53.71
2018-07-01T11:21:45.806Z,53.71
2018-07-01T11:22:45.744Z,53.91
2018-07-01T11:23:45.686Z,53.91
2018-07-01T11:24:45.631Z,54.00
2018-07-01T11:25:45.584Z,53.81
2018-07-01T11:26:45.584Z,53.91
2018-07-01T11:27:45.489Z,54.00
2018-07-01T11:28:45.414Z,54.36
2018-07-01T11:29:45.362Z,54.88
2018-07-01T11:30:45.301Z,54.39
2018-07-01T11:31:45.243Z,54.59
2018-07-01T11:32:45.234Z,55.18
2018-07-01T11:33:45.126Z,53.81
2018-07-01T11:34:45.069Z,53.61
2018-07-01T11:35:45.016Z,53.61
2018-07-01T11:36:44.945Z,53.61
2018-07-01T11:37:44.908Z,52.93
2018-07-01T11:38:44.845Z,53.13
2018-07-01T11:39:44.775Z,53.22
2018-07-01T11:40:44.738Z,53.22
2018-07-01T11:41:44.658Z,53.42
2018-07-01T11:42:44.604Z,55.18
2018-07-01T11:43:44.556Z,54.49
2018-07-01T11:44:44.506Z,53.61
2018-07-01T11:45:44.441Z,53.13
2018-07-01T11:46:44.368Z,53.42
2018-07-01T11:47:44.320Z,53.13
2018-07-01T11:48:44.275Z,53.32
2018-07-01T11:49:44.217Z,52.80
2018-07-01T11:50:44.153Z,53.13
2018-07-01T11:51:44.091Z,53.03
2018-07-01T11:52:44.046Z,51.86
2018-07-01T11:53:43.975Z,51.86
2018-07-01T11:54:43.933Z,51.98
2018-07-01T11:55:43.867Z,51.86
2018-07-01T11:56:43.802Z,51.95
2018-07-01T11:57:43.749Z,52.44
2018-07-01T11:58:43.700Z,51.86
2018-07-01T11:59:43.641Z,53.42
2018-07-01T12:00:43.579Z,51.95
2018-07-01T12:01:43.524Z,52.05
2018-07-01T12:02:43.466Z,51.95
2018-07-01T12:03:43.409Z,51.39
2018-07-01T12:05:02.954Z,52.25
2018-07-01T12:05:43.328Z,51.07
2018-07-01T12:06:43.244Z,50.98
2018-07-01T12:07:43.178Z,50.20
2018-07-01T12:08:43.123Z,50.59
2018-07-01T12:09:43.074Z,51.00
2018-07-01T12:10:43.005Z,50.32
2018-07-01T12:11:42.946Z,50.29
2018-07-01T12:12:42.909Z,49.92
2018-07-01T12:13:42.833Z,49.80
2018-07-01T12:14:42.790Z,50.22
2018-07-01T12:15:42.723Z,49.90
2018-07-01T12:16:42.657Z,49.80
2018-07-01T12:17:42.619Z,50.12
2018-07-01T12:18:42.543Z,50.02
2018-07-01T12:19:42.503Z,50.12
2018-07-01T12:20:42.445Z,49.73
2018-07-01T12:21:42.386Z,49.53
2018-07-01T12:22:42.315Z,49.53
2018-07-01T12:23:42.296Z,49.43
2018-07-01T12:24:42.200Z,49.55
2018-07-01T12:25:42.154Z,49.75
2018-07-01T12:26:42.101Z,49.53
2018-07-01T12:27:42.029Z,49.53
2018-07-01T12:28:42.030Z,49.53
2018-07-01T12:29:41.913Z,49.53
2018-07-01T12:30:41.854Z,49.14
2018-07-01T12:31:41.798Z,49.14
2018-07-01T12:32:41.791Z,49.24
2018-07-01T12:33:41.689Z,49.04
2018-07-01T12:34:41.684Z,49.82
2018-07-01T12:35:41.572Z,49.75
2018-07-01T12:36:41.513Z,49.85
2018-07-01T12:37:41.457Z,49.53
2018-07-01T12:38:41.410Z,49.65
2018-07-01T12:39:41.363Z,49.16
2018-07-01T12:40:41.288Z,49.75
2018-07-01T12:41:41.233Z,49.55
2018-07-01T12:42:41.168Z,49.36
2018-07-01T12:43:41.115Z,50.15
2018-07-01T12:44:41.078Z,49.65
2018-07-01T12:45:41.005Z,49.85
2018-07-01T12:46:40.977Z,49.16
2018-07-01T12:47:40.952Z,49.36
2018-07-01T12:48:40.875Z,49.16
2018-07-01T12:49:40.769Z,49.09
2018-07-01T12:50:40.721Z,51.12
2018-07-01T12:51:40.670Z,50.54
2018-07-01T12:52:40.612Z,50.07
2018-07-01T12:53:40.545Z,49.85
2018-07-01T12:54:40.502Z,49.55
2018-07-01T12:55:40.452Z,49.87
2018-07-01T12:56:40.381Z,49.46
2018-07-01T12:57:40.320Z,49.58
2018-07-01T12:58:40.302Z,48.99
2018-07-01T12:59:40.210Z,48.70
2018-07-01T13:00:40.177Z,48.70
2018-07-01T13:01:40.094Z,48.58
2018-07-01T13:02:40.043Z,49.65
2018-07-01T13:03:39.981Z,48.68
2018-07-01T13:04:39.925Z,48.60
2018-07-01T13:05:39.863Z,48.77
2018-07-01T13:06:39.803Z,49.26
2018-07-01T13:07:39.763Z,49.16
2018-07-01T13:08:39.805Z,48.97
2018-07-01T13:09:39.643Z,49.26
2018-07-01T13:10:39.598Z,52.20
2018-07-01T13:11:39.527Z,50.24
2018-07-01T13:12:39.481Z,49.65
2018-07-01T13:13:39.408Z,49.97
2018-07-01T13:14:39.372Z,49.65
2018-07-01T13:15:39.310Z,48.70
2018-07-01T13:16:39.260Z,49.09
2018-07-01T13:17:39.211Z,48.99
2018-07-01T13:18:39.140Z,48.99
2018-07-01T13:19:39.078Z,50.83
2018-07-01T13:20:39.018Z,49.85
2018-07-01T13:21:38.975Z,49.85
2018-07-01T13:22:38.911Z,49.65
2018-07-01T13:23:38.844Z,51.61
2018-07-01T13:24:38.792Z,54.15
2018-07-01T13:25:38.741Z,51.51
2018-07-01T13:26:38.677Z,49.92
2018-07-01T13:27:38.627Z,49.85
2018-07-01T13:28:38.572Z,49.95
2018-07-01T13:29:38.515Z,49.55
2018-07-01T13:30:38.457Z,49.65
2018-07-01T13:31:38.392Z,49.65
2018-07-01T13:32:38.343Z,49.55
2018-07-01T13:33:38.279Z,49.55
2018-07-01T13:34:38.243Z,49.85
2018-07-01T13:35:38.159Z,50.73
2018-07-01T13:36:38.112Z,50.34
2018-07-01T13:37:38.064Z,50.15
2018-07-01T13:38:37.989Z,50.44
2018-07-01T13:39:37.939Z,50.24
2018-07-01T13:40:37.871Z,50.44
2018-07-01T13:41:37.830Z,50.54
2018-07-01T13:42:37.776Z,51.22
2018-07-01T13:43:37.718Z,50.83
2018-07-01T13:44:37.649Z,50.83
2018-07-01T13:45:37.599Z,51.32
2018-07-01T13:46:37.524Z,51.12
2018-07-01T13:47:37.490Z,53.17
2018-07-01T13:48:37.432Z,53.56
2018-07-01T13:49:37.379Z,54.81
2018-07-01T13:50:37.321Z,55.00
2018-07-01T13:51:37.257Z,56.47
2018-07-01T13:52:37.198Z,57.64
2018-07-01T13:53:37.132Z,57.74
2018-07-01T13:54:37.094Z,57.54
2018-07-01T13:55:37.022Z,56.37
2018-07-01T13:56:36.970Z,55.96
2018-07-01T13:57:36.900Z,56.27
2018-07-01T13:58:36.884Z,57.32
2018-07-01T13:59:36.789Z,57.62
2018-07-01T14:00:36.741Z,56.84
2018-07-01T14:01:36.683Z,55.57
2018-07-01T14:02:36.637Z,55.15
2018-07-01T14:03:36.561Z,55.18
2018-07-01T14:04:36.514Z,57.52
2018-07-01T14:05:36.450Z,57.59
2018-07-01T14:06:36.425Z,56.12
2018-07-01T14:07:36.333Z,57.98
2018-07-01T14:08:36.296Z,58.37
2018-07-01T14:09:36.260Z,58.56
2018-07-01T14:10:36.161Z,58.53
2018-07-01T14:11:36.118Z,59.41
2018-07-01T14:12:36.045Z,58.73
2018-07-01T14:13:36.001Z,58.04
2018-07-01T14:14:35.939Z,59.02
2018-07-01T14:15:35.873Z,58.53
2018-07-01T14:16:35.832Z,57.26
2018-07-01T14:17:35.756Z,57.49
2018-07-01T14:18:35.703Z,56.90
2018-07-01T14:19:35.659Z,57.39
2018-07-01T14:20:35.598Z,57.78
2018-07-01T14:21:35.540Z,57.23
2018-07-01T14:22:35.467Z,56.84
2018-07-01T14:23:35.468Z,56.93
2018-07-01T14:24:35.359Z,57.13
2018-07-01T14:25:35.303Z,56.25
2018-07-01T14:26:35.248Z,57.32
2018-07-01T14:27:35.186Z,56.18
2018-07-01T14:28:35.127Z,56.37
2018-07-01T14:29:35.073Z,55.71
2018-07-01T14:30:35.036Z,56.10
2018-07-01T14:31:34.966Z,55.91
2018-07-01T14:32:34.911Z,55.42
2018-07-01T14:33:34.851Z,55.52
2018-07-01T14:34:34.798Z,55.06
2018-07-01T14:35:34.794Z,54.57
2018-07-01T14:36:34.686Z,55.35
2018-07-01T14:37:34.644Z,56.04
2018-07-01T14:38:34.562Z,56.62
2018-07-01T14:39:34.507Z,57.28
2018-07-01T14:40:34.464Z,55.91
2018-07-01T14:41:34.416Z,55.71
2018-07-01T14:42:34.348Z,54.83
2018-07-01T14:43:34.302Z,55.42
2018-07-01T14:44:34.225Z,54.64
2018-07-01T14:45:34.179Z,55.55
2018-07-01T14:46:34.115Z,56.10
2018-07-01T14:47:34.066Z,57.77
2018-07-01T14:48:33.999Z,57.87
2018-07-01T14:49:33.960Z,57.89
2018-07-01T14:50:33.899Z,57.89
2018-07-01T14:51:33.838Z,57.50
2018-07-01T14:52:33.786Z,57.31
2018-07-01T14:53:33.718Z,57.01
2018-07-01T14:54:33.667Z,57.21
2018-07-01T14:55:33.607Z,57.01
2018-07-01T14:56:33.559Z,57.11
2018-07-01T14:57:33.500Z,57.89
2018-07-01T14:58:33.433Z,57.50
2018-07-01T14:59:33.396Z,57.87
2018-07-01T15:00:33.336Z,58.65
2018-07-01T15:01:33.271Z,57.77
2018-07-01T15:02:33.213Z,57.18
2018-07-01T15:03:33.161Z,58.06
2018-07-01T15:04:33.101Z,58.06
2018-07-01T15:05:33.054Z,58.06
2018-07-01T15:06:32.991Z,58.75
2018-07-01T15:07:32.942Z,57.77
2018-07-01T15:08:32.894Z,59.40
2018-07-01T15:09:32.830Z,61.25
2018-07-01T15:10:32.778Z,61.84
2018-07-01T15:11:32.718Z,62.04
2018-07-01T15:12:32.659Z,62.13
2018-07-01T15:13:32.594Z,60.38
2018-07-01T15:14:32.540Z,60.18
2018-07-01T15:15:32.483Z,61.65
2018-07-01T15:16:32.448Z,62.53
2018-07-01T15:17:32.359Z,62.43
2018-07-01T15:18:32.325Z,63.12
2018-07-01T15:19:32.269Z,63.70
2018-07-01T15:20:32.205Z,64.19
2018-07-01T15:21:32.150Z,61.94
2018-07-01T15:22:32.081Z,61.65
2018-07-01T15:23:32.038Z,61.35
2018-07-01T15:24:31.987Z,61.72
2018-07-01T15:25:31.913Z,64.84
2018-07-01T15:26:31.868Z,64.94
2018-07-01T15:27:31.807Z,64.65
2018-07-01T15:28:31.744Z,64.36
2018-07-01T15:29:31.683Z,66.21
2018-07-01T15:30:31.644Z,67.97
2018-07-01T15:31:31.577Z,68.46
2018-07-01T15:32:31.514Z,68.36
2018-07-01T15:33:31.459Z,68.36
2018-07-01T15:34:31.414Z,68.36
2018-07-01T15:35:31.354Z,69.10
2018-07-01T15:36:31.304Z,69.20
2018-07-01T15:37:31.220Z,70.34
2018-07-01T15:38:31.176Z,71.12
2018-07-01T15:39:31.122Z,70.73
2018-07-01T15:40:31.069Z,70.63
2018-07-01T15:41:30.996Z,72.39
2018-07-01T15:42:30.938Z,73.85
2018-07-01T15:43:30.882Z,77.62
2018-07-01T15:44:30.829Z,77.33
2018-07-01T15:45:30.774Z,80.25
2018-07-01T15:46:30.713Z,79.51
2018-07-01T15:47:30.661Z,77.17
2018-07-01T15:48:30.604Z,77.46
2018-07-01T15:49:30.554Z,79.12
2018-07-01T15:50:30.479Z,79.35
2018-07-01T15:51:30.434Z,77.40
2018-07-01T15:52:30.369Z,78.38
2018-07-01T15:53:30.321Z,79.16
2018-07-01T15:54:30.269Z,78.96
2018-07-01T15:55:30.205Z,79.55
2018-07-01T15:56:30.152Z,79.51
2018-07-01T15:57:30.081Z,79.41
2018-07-01T15:58:30.033Z,79.61
2018-07-01T15:59:29.995Z,79.22
2018-07-01T16:00:29.927Z,80.00
2018-07-01T16:01:29.862Z,80.15
2018-07-01T16:02:29.842Z,80.58
2018-07-01T16:03:29.737Z,79.76
2018-07-01T16:04:29.690Z,79.37
2018-07-01T16:05:29.631Z,80.83
2018-07-01T16:06:29.577Z,79.08
2018-07-01T16:07:29.513Z,79.17
2018-07-01T16:08:29.461Z,79.66
2018-07-01T16:09:29.390Z,79.76
2018-07-01T16:10:29.342Z,78.79
2018-07-01T16:11:29.298Z,78.59
2018-07-01T16:12:29.216Z,79.96
2018-07-01T16:13:29.156Z,79.27
2018-07-01T16:14:29.136Z,79.57
2018-07-01T16:15:29.050Z,79.57
2018-07-01T16:16:28.980Z,79.27
2018-07-01T16:17:28.941Z,79.27
2018-07-01T16:18:28.864Z,79.27
2018-07-01T16:19:28.808Z,79.27
2018-07-01T16:20:28.756Z,78.69
2018-07-01T16:21:28.703Z,78.79